Time;durP1;ratioP1;P1;durP2;ratioP2;P2;SDS_P1;SDS_P2;PMS_P1;PMS_P2;Temp;Humidity;BMP_temperature;BMP_pressure;BME280_temperature;BME280_humidity;BME280_pressure;Samples;Min_cycle;Max_cycle;Signal;HPM_P1;HPM_P2
2022/06/15 00:01:23;;;;;;;5.85;2.83;;;11.40;99.90;;;;;;4895302;29;20034;-92
2022/06/15 00:03:50;;;;;;;6.40;2.30;;;11.40;99.90;;;;;;4902807;29;20088;-92
2022/06/15 00:06:25;;;;;;;3.03;2.22;;;11.30;99.90;;;;;;4903853;29;20145;-92
2022/06/15 00:08:53;;;;;;;5.45;2.97;;;11.30;99.90;;;;;;4911157;29;20405;-92
2022/06/15 00:11:24;;;;;;;3.97;2.20;;;11.30;99.90;;;;;;4898390;29;20033;-92
2022/06/15 00:13:50;;;;;;;6.87;2.40;;;11.30;99.90;;;;;;4918285;29;20411;-92
2022/06/15 00:16:17;;;;;;;4.80;2.55;;;11.30;99.90;;;;;;4917621;29;20389;-93
2022/06/15 00:18:44;;;;;;;2.95;2.40;;;11.20;99.90;;;;;;4922217;29;20473;-91
2022/06/15 00:21:11;;;;;;;4.07;2.83;;;11.20;99.90;;;;;;4901487;29;20036;-91
2022/06/15 00:23:37;;;;;;;5.68;2.72;;;11.10;99.90;;;;;;4912724;29;20032;-92
2022/06/15 00:26:04;;;;;;;3.50;3.20;;;11.00;99.90;;;;;;4900772;29;20033;-92
2022/06/15 00:28:31;;;;;;;7.05;3.42;;;10.90;99.90;;;;;;4900811;29;20104;-90
2022/06/15 00:30:57;;;;;;;6.55;2.92;;;10.80;99.90;;;;;;4905024;29;20076;-91
2022/06/15 00:33:24;;;;;;;4.22;3.40;;;10.70;99.90;;;;;;4926150;29;20046;-91
2022/06/15 00:35:57;;;;;;;3.47;2.88;;;10.60;99.90;;;;;;4918146;29;20036;-92
2022/06/15 00:38:40;;;;;;;7.25;3.53;;;10.60;99.90;;;;;;4917856;29;20031;-91
2022/06/15 00:41:08;;;;;;;4.25;3.05;;;10.50;99.90;;;;;;4905141;29;20032;-92
2022/06/15 00:43:35;;;;;;;5.40;3.13;;;10.40;99.90;;;;;;4905960;29;20035;-92
2022/06/15 00:46:22;;;;;;;4.63;3.05;;;10.40;99.90;;;;;;4923872;29;20027;-92
2022/06/15 00:48:56;;;;;;;4.10;3.13;;;10.30;99.90;;;;;;4909434;29;20055;-92
2022/06/15 00:51:23;;;;;;;3.75;2.80;;;10.20;99.90;;;;;;4919075;29;20135;-92
2022/06/15 00:53:48;;;;;;;4.88;2.80;;;10.10;99.90;;;;;;4902169;29;20028;-92
2022/06/15 00:56:14;;;;;;;3.20;2.80;;;10.10;99.90;;;;;;4921146;29;20035;-92
2022/06/15 00:58:45;;;;;;;5.15;3.42;;;10.00;99.90;;;;;;4903141;29;20032;-92
2022/06/15 01:01:11;;;;;;;3.20;2.70;;;10.00;99.90;;;;;;4923955;29;20028;-92
2022/06/15 01:03:37;;;;;;;3.58;3.28;;;10.00;99.90;;;;;;4902395;29;20028;-91
2022/06/15 01:06:19;;;;;;;3.55;3.25;;;9.90;99.90;;;;;;4907096;29;20036;-92
2022/06/15 01:09:19;;;;;;;7.78;3.63;;;9.80;99.90;;;;;;4899432;29;20033;-91
2022/06/15 01:11:57;;;;;;;3.35;3.05;;;9.70;99.90;;;;;;4908777;29;20046;-91
2022/06/15 01:14:25;;;;;;;6.20;3.30;;;9.70;99.90;;;;;;4896450;29;20025;-91
2022/06/15 01:16:54;;;;;;;5.30;2.80;;;9.60;99.90;;;;;;4901772;29;20445;-92
2022/06/15 01:19:23;;;;;;;3.83;3.53;;;9.50;99.90;;;;;;4916195;29;20092;-91
2022/06/15 01:21:48;;;;;;;3.80;3.50;;;9.50;99.90;;;;;;4891910;29;20469;-91
2022/06/15 01:24:33;;;;;;;4.43;3.78;;;9.50;99.90;;;;;;4928789;29;20051;-91
2022/06/15 01:27:40;;;;;;;5.88;3.50;;;9.50;99.90;;;;;;4914598;29;20024;-90
2022/06/15 01:30:10;;;;;;;4.88;3.67;;;9.50;99.90;;;;;;4857761;29;20044;-91
2022/06/15 01:32:39;;;;;;;4.88;3.70;;;9.40;99.90;;;;;;4892247;29;20585;-91
2022/06/15 01:35:14;;;;;;;7.15;4.35;;;9.40;99.90;;;;;;4909582;29;20493;-91
2022/06/15 01:37:55;;;;;;;6.00;3.42;;;9.30;99.90;;;;;;4897611;29;20047;-92
2022/06/15 01:40:33;;;;;;;3.25;2.85;;;9.30;99.90;;;;;;4904085;29;20032;-91
2022/06/15 01:43:06;;;;;;;7.60;2.90;;;9.20;99.90;;;;;;4921647;29;20081;-92
2022/06/15 01:45:39;;;;;;;7.80;4.25;;;9.20;99.90;;;;;;4899945;29;20059;-92
2022/06/15 01:48:08;;;;;;;6.82;3.70;;;9.20;99.90;;;;;;4910351;29;20047;-91
2022/06/15 01:50:45;;;;;;;5.28;3.53;;;9.10;99.90;;;;;;4908415;29;20047;-92
2022/06/15 01:53:24;;;;;;;7.65;3.83;;;9.10;99.90;;;;;;4915798;29;20452;-90
2022/06/15 01:56:23;;;;;;;5.22;3.60;;;9.10;99.90;;;;;;4896819;29;20041;-91
2022/06/15 01:58:55;;;;;;;4.85;3.22;;;9.00;99.90;;;;;;4894617;29;20048;-91
2022/06/15 02:01:31;;;;;;;3.90;3.60;;;9.10;99.90;;;;;;4916053;29;20036;-91
2022/06/15 02:04:17;;;;;;;5.50;4.25;;;9.10;99.90;;;;;;4902358;29;20245;-91
2022/06/15 02:06:51;;;;;;;4.30;3.90;;;9.20;99.90;;;;;;4912197;29;20028;-91
2022/06/15 02:09:32;;;;;;;4.25;3.78;;;9.20;99.90;;;;;;4898479;29;20505;-92
2022/06/15 02:12:01;;;;;;;6.65;4.25;;;9.30;99.90;;;;;;4915985;29;20036;-91
2022/06/15 02:14:42;;;;;;;6.90;3.47;;;9.30;99.90;;;;;;4897933;29;20064;-91
2022/06/15 02:17:18;;;;;;;4.65;3.65;;;9.30;99.90;;;;;;4926914;29;20038;-91
2022/06/15 02:19:51;;;;;;;5.03;3.50;;;9.30;99.90;;;;;;4897992;29;20184;-91
2022/06/15 02:22:20;;;;;;;3.85;3.55;;;9.30;99.90;;;;;;4905085;29;20165;-91
2022/06/15 02:24:50;;;;;;;5.18;3.80;;;9.20;99.90;;;;;;4903526;29;20071;-91
2022/06/15 02:27:17;;;;;;;4.15;3.20;;;9.20;99.90;;;;;;4911321;29;20040;-91
2022/06/15 02:29:45;;;;;;;4.82;4.13;;;9.20;99.90;;;;;;4925030;29;20035;-91
2022/06/15 02:32:15;;;;;;;4.25;3.83;;;9.10;99.90;;;;;;4904432;29;20060;-91
2022/06/15 02:34:41;;;;;;;10.32;3.80;;;9.10;99.90;;;;;;4926969;29;20559;-91
2022/06/15 02:37:07;;;;;;;12.68;4.95;;;9.00;99.90;;;;;;4900160;29;20173;-91
2022/06/15 02:39:32;;;;;;;5.13;3.50;;;9.00;99.90;;;;;;4906255;29;20079;-91
2022/06/15 02:42:01;;;;;;;6.13;4.57;;;9.00;99.90;;;;;;4915666;29;20412;-91
2022/06/15 02:44:30;;;;;;;4.95;3.33;;;8.90;99.90;;;;;;4902936;29;20119;-91
2022/06/15 02:46:57;;;;;;;5.18;3.85;;;8.90;99.90;;;;;;4915972;29;20040;-90
2022/06/15 02:49:24;;;;;;;4.65;4.07;;;8.90;99.90;;;;;;4923244;29;20119;-92
2022/06/15 02:51:56;;;;;;;4.80;4.40;;;8.90;99.90;;;;;;4916548;29;20107;-91
2022/06/15 02:54:47;;;;;;;4.93;4.35;;;8.80;99.90;;;;;;4896319;29;20068;-91
2022/06/15 02:57:14;;;;;;;8.52;4.72;;;8.80;99.90;;;;;;4909963;29;20028;-91
2022/06/15 02:59:41;;;;;;;5.32;4.10;;;8.70;99.90;;;;;;4897250;29;20029;-90
2022/06/15 03:02:08;;;;;;;5.32;3.80;;;8.70;99.90;;;;;;4912665;29;20441;-92
2022/06/15 03:04:33;;;;;;;4.32;3.92;;;8.60;99.90;;;;;;4901707;29;20473;-91
2022/06/15 03:06:59;;;;;;;5.43;4.43;;;8.60;99.90;;;;;;4912946;29;20036;-91
2022/06/15 03:09:25;;;;;;;5.47;4.63;;;8.50;99.90;;;;;;4900267;29;20080;-90
2022/06/15 03:11:51;;;;;;;4.70;4.10;;;8.50;99.90;;;;;;4886920;29;20040;-91
2022/06/15 03:14:19;;;;;;;7.72;4.32;;;8.50;99.90;;;;;;4919343;29;20029;-91
2022/06/15 03:16:48;;;;;;;6.15;4.13;;;8.50;99.90;;;;;;4927798;29;20044;-91
2022/06/15 03:19:17;;;;;;;5.05;4.60;;;8.50;99.90;;;;;;4904867;29;20024;-88
2022/06/15 03:21:42;;;;;;;6.03;4.00;;;8.50;99.90;;;;;;4902994;29;20024;-91
2022/06/15 03:24:11;;;;;;;4.22;3.83;;;8.40;99.90;;;;;;4890538;29;20039;-92
2022/06/15 03:26:39;;;;;;;4.22;3.83;;;8.40;99.90;;;;;;4914278;29;20064;-92
2022/06/15 03:29:06;;;;;;;6.43;4.93;;;8.40;99.90;;;;;;4913297;29;20088;-92
2022/06/15 03:31:32;;;;;;;5.72;4.18;;;8.40;99.90;;;;;;4919501;29;20396;-91
2022/06/15 03:33:57;;;;;;;4.55;4.22;;;8.40;99.90;;;;;;4906371;29;20021;-92
2022/06/15 03:36:24;;;;;;;5.40;4.93;;;8.40;99.90;;;;;;4918948;29;20520;-92
2022/06/15 03:38:51;;;;;;;7.05;4.63;;;8.40;99.90;;;;;;4913894;29;20072;-91
2022/06/15 03:41:22;;;;;;;5.38;4.30;;;8.30;99.90;;;;;;4921859;29;20040;-92
2022/06/15 03:43:48;;;;;;;7.32;4.78;;;8.30;99.90;;;;;;4912879;29;20108;-92
2022/06/15 03:46:14;;;;;;;5.07;4.57;;;8.30;99.90;;;;;;4898077;29;20048;-90
2022/06/15 03:48:41;;;;;;;7.22;4.72;;;8.40;99.90;;;;;;4923465;29;20028;-91
2022/06/15 03:51:07;;;;;;;6.38;4.47;;;8.40;99.90;;;;;;4912340;29;20056;-91
2022/06/15 03:53:32;;;;;;;6.93;4.88;;;8.40;99.90;;;;;;4901862;29;20059;-91
2022/06/15 03:55:58;;;;;;;6.47;5.32;;;8.40;99.90;;;;;;4923072;29;20044;-91
2022/06/15 03:58:24;;;;;;;6.05;5.05;;;8.50;99.90;;;;;;4919195;29;20480;-91
2022/06/15 04:00:50;;;;;;;5.78;5.28;;;8.50;99.90;;;;;;4916828;29;20119;-91
2022/06/15 04:03:16;;;;;;;7.55;5.38;;;8.60;99.90;;;;;;4923843;29;20032;-92
2022/06/15 04:05:51;;;;;;;8.93;5.40;;;8.60;99.90;;;;;;4907898;29;20104;-93
2022/06/15 04:08:37;;;;;;;7.93;5.70;;;8.70;99.90;;;;;;4917193;29;20043;-91
2022/06/15 04:11:58;;;;;;;6.68;5.22;;;8.80;99.90;;;;;;4909176;29;20036;-91
2022/06/15 04:14:04;;;;;;;5.50;4.90;;;8.90;99.90;;;;;;4914188;29;20451;-91
2022/06/15 04:16:30;;;;;;;4.95;4.35;;;9.00;99.90;;;;;;4894060;29;20508;-91
2022/06/15 04:19:02;;;;;;;5.45;4.60;;;9.00;99.90;;;;;;4904881;29;20031;-90
2022/06/15 04:21:28;;;;;;;4.65;4.25;;;9.10;99.90;;;;;;4915478;29;20044;-91
2022/06/15 04:23:53;;;;;;;8.68;4.75;;;9.10;99.90;;;;;;4896752;29;20036;-90
2022/06/15 04:26:19;;;;;;;4.80;4.13;;;9.20;99.90;;;;;;4907431;29;20039;-91
2022/06/15 04:28:45;;;;;;;5.10;4.60;;;9.20;99.90;;;;;;4894068;29;20033;-91
2022/06/15 04:31:11;;;;;;;4.68;4.28;;;9.30;99.90;;;;;;4916597;29;20083;-91
2022/06/15 04:33:36;;;;;;;5.30;4.45;;;9.30;99.90;;;;;;4903264;29;20032;-91
2022/06/15 04:36:02;;;;;;;4.93;4.40;;;9.40;99.90;;;;;;4916478;29;20527;-92
2022/06/15 04:38:28;;;;;;;4.78;4.30;;;9.40;99.90;;;;;;4899130;29;20453;-91
2022/06/15 04:40:54;;;;;;;5.45;4.72;;;9.50;99.90;;;;;;4900991;29;20087;-91
2022/06/15 04:43:20;;;;;;;4.95;4.45;;;9.50;99.90;;;;;;4917752;29;20495;-91
2022/06/15 04:45:45;;;;;;;5.97;5.00;;;9.60;99.90;;;;;;4922655;29;20400;-91
2022/06/15 04:48:11;;;;;;;4.90;4.40;;;9.70;99.90;;;;;;4906557;29;20048;-90
2022/06/15 04:50:41;;;;;;;5.18;4.80;;;9.80;99.90;;;;;;4924284;29;20472;-91
2022/06/15 04:53:07;;;;;;;5.25;4.60;;;10.00;99.90;;;;;;4915756;29;20411;-92
2022/06/15 04:55:34;;;;;;;7.20;4.72;;;10.10;99.90;;;;;;4902935;29;20051;-91
2022/06/15 04:58:00;;;;;;;6.82;4.88;;;10.20;99.90;;;;;;4903955;29;20034;-91
2022/06/15 05:00:36;;;;;;;5.10;4.47;;;10.40;99.90;;;;;;4926105;29;20035;-91
2022/06/15 05:03:02;;;;;;;4.53;4.13;;;10.50;99.90;;;;;;4922210;29;20119;-91
2022/06/15 05:05:28;;;;;;;5.25;4.50;;;10.60;99.90;;;;;;4909497;29;20115;-93
2022/06/15 05:07:54;;;;;;;8.23;5.53;;;10.80;99.90;;;;;;4902518;29;20036;-92
2022/06/15 05:10:22;;;;;;;5.03;4.40;;;11.00;99.90;;;;;;4904046;29;20781;-91
2022/06/15 05:12:49;;;;;;;6.18;4.88;;;11.40;99.90;;;;;;4917140;29;20024;-92
2022/06/15 05:15:15;;;;;;;3.22;2.75;;;12.50;99.90;;;;;;4914501;29;20048;-90
2022/06/15 05:17:42;;;;;;;7.75;3.25;;;14.00;99.90;;;;;;4909606;29;20032;-92
2022/06/15 05:20:10;;;;;;;5.15;2.63;;;15.90;99.90;;;;;;4914857;29;20060;-92
2022/06/15 05:22:37;;;;;;;3.22;2.78;;;17.70;99.90;;;;;;4924168;29;20032;-93
2022/06/15 05:25:05;;;;;;;3.22;2.20;;;19.10;94.00;;;;;;4922300;29;20035;-93
2022/06/15 05:27:32;;;;;;;6.03;2.40;;;20.70;86.80;;;;;;4908037;29;20060;-93
2022/06/15 05:29:57;;;;;;;2.42;2.10;;;21.90;78.80;;;;;;4922191;29;20024;-92
2022/06/15 05:32:24;;;;;;;3.20;2.13;;;22.70;71.90;;;;;;4902204;29;20040;-92
2022/06/15 05:34:50;;;;;;;3.92;1.65;;;23.40;70.10;;;;;;4901691;29;20565;-92
2022/06/15 05:37:16;;;;;;;3.78;1.70;;;23.80;63.60;;;;;;4915600;29;20096;-93
2022/06/15 05:39:41;;;;;;;2.13;1.73;;;24.20;63.70;;;;;;4921927;29;20039;-93
2022/06/15 05:42:07;;;;;;;5.15;1.83;;;24.50;61.00;;;;;;4903379;29;20389;-93
2022/06/15 05:47:06;;;;;;;3.50;1.88;;;25.60;58.10;;;;;;4917603;29;20076;-94
2022/06/15 05:49:32;;;;;;;1.58;1.45;;;25.60;55.50;;;;;;4906407;29;20028;-92
2022/06/15 05:52:00;;;;;;;2.55;1.60;;;25.40;56.30;;;;;;4921690;29;20055;-93
2022/06/15 05:54:26;;;;;;;2.75;1.60;;;25.60;56.50;;;;;;4923573;29;20051;-94
2022/06/15 05:56:51;;;;;;;3.30;1.67;;;25.80;56.30;;;;;;4919211;29;20074;-95
2022/06/15 05:59:17;;;;;;;2.65;1.63;;;26.20;56.00;;;;;;4921322;29;20059;-94
2022/06/15 06:01:43;;;;;;;3.17;1.80;;;26.00;55.60;;;;;;4904056;29;20505;-94
2022/06/15 06:04:15;;;;;;;2.72;1.50;;;26.70;54.20;;;;;;4905586;29;20059;-93
2022/06/15 06:06:41;;;;;;;2.45;1.50;;;27.30;52.20;;;;;;4909336;29;20036;-94
2022/06/15 06:09:07;;;;;;;2.92;1.50;;;27.50;53.10;;;;;;4923799;29;20113;-92
2022/06/15 06:11:32;;;;;;;3.45;1.50;;;28.50;50.80;;;;;;4929008;29;20117;-93
2022/06/15 06:13:58;;;;;;;10.45;1.70;;;28.80;50.00;;;;;;4897227;29;20058;-95
2022/06/15 06:16:24;;;;;;;3.83;1.20;;;29.30;49.00;;;;;;4900640;29;20087;-94
2022/06/15 06:18:51;;;;;;;2.15;1.27;;;30.00;47.00;;;;;;4922899;29;20103;-95
2022/06/15 06:21:18;;;;;;;2.35;1.05;;;30.20;46.90;;;;;;4904991;29;20028;-94
2022/06/15 06:23:44;;;;;;;1.77;1.27;;;30.60;46.50;;;;;;4905683;29;20036;-93
2022/06/15 06:26:42;;;;;;;6.53;1.30;;;30.00;45.10;;;;;;4903632;29;20033;-94
2022/06/15 06:29:10;;;;;;;1.40;1.05;;;30.40;46.30;;;;;;4875575;29;20036;-93
2022/06/15 06:31:36;;;;;;;2.50;1.08;;;31.20;44.70;;;;;;4891590;29;20068;-94
2022/06/15 06:34:01;;;;;;;2.08;1.10;;;31.50;44.20;;;;;;4909482;29;20032;-93
2022/06/15 06:36:34;;;;;;;2.47;1.13;;;31.40;43.00;;;;;;4901407;29;20068;-94
2022/06/15 06:39:03;;;;;;;3.72;1.13;;;30.40;43.60;;;;;;4893133;29;20024;-93
2022/06/15 06:41:31;;;;;;;2.90;1.10;;;30.90;44.60;;;;;;4893988;29;20307;-93
2022/06/15 06:43:59;;;;;;;3.65;1.05;;;30.90;43.20;;;;;;4908788;29;20454;-93
2022/06/15 06:46:25;;;;;;;2.42;1.25;;;30.80;43.30;;;;;;4913278;29;20051;-92
2022/06/15 06:48:51;;;;;;;5.60;1.50;;;30.40;44.40;;;;;;4912464;29;20066;-94
2022/06/15 06:51:19;;;;;;;4.47;1.30;;;30.90;43.30;;;;;;4903399;29;20031;-93
2022/06/15 06:53:45;;;;;;;4.72;0.93;;;31.30;43.30;;;;;;4902620;29;20028;-94
2022/06/15 06:56:11;;;;;;;2.58;1.10;;;31.30;42.60;;;;;;4916509;29;20036;-91
2022/06/15 06:58:37;;;;;;;2.95;1.30;;;31.20;43.20;;;;;;4919153;29;20039;-93
2022/06/15 07:01:04;;;;;;;2.63;1.33;;;31.50;42.50;;;;;;4920375;29;20028;-94
2022/06/15 07:03:30;;;;;;;2.60;1.33;;;31.10;43.60;;;;;;4918513;29;20127;-93
2022/06/15 07:06:04;;;;;;;2.60;1.13;;;31.40;43.20;;;;;;4891616;29;20040;-93
2022/06/15 07:08:30;;;;;;;16.00;2.50;;;31.80;42.10;;;;;;4898633;29;20036;-93
2022/06/15 07:10:56;;;;;;;3.75;1.10;;;31.90;41.60;;;;;;4912112;29;20103;-92
2022/06/15 07:13:21;;;;;;;2.90;1.25;;;32.30;42.00;;;;;;4914625;29;20036;-93
2022/06/15 07:15:47;;;;;;;3.45;1.38;;;32.50;41.70;;;;;;4912960;29;20085;-93
2022/06/15 07:18:13;;;;;;;3.60;1.20;;;32.30;40.80;;;;;;4900545;29;20043;-93
2022/06/15 07:20:38;;;;;;;3.92;1.35;;;31.60;41.70;;;;;;4900909;29;20037;-93
2022/06/15 07:23:04;;;;;;;3.60;1.50;;;31.50;41.70;;;;;;4899394;29;20036;-92
2022/06/15 07:25:30;;;;;;;2.53;1.27;;;32.40;43.20;;;;;;4916982;29;20532;-94
2022/06/15 07:27:56;;;;;;;2.65;1.10;;;32.70;40.90;;;;;;4903174;29;20028;-92
2022/06/15 07:30:24;;;;;;;1.58;1.20;;;31.90;40.60;;;;;;4896707;29;20028;-93
2022/06/15 07:32:51;;;;;;;3.10;1.20;;;31.20;42.20;;;;;;4902149;29;20040;-92
2022/06/15 07:35:27;;;;;;;4.32;1.33;;;31.50;42.40;;;;;;4903665;29;20039;-93
2022/06/15 07:37:54;;;;;;;6.53;1.60;;;30.80;42.70;;;;;;4902589;29;20504;-93
2022/06/15 07:40:21;;;;;;;2.72;1.20;;;30.50;43.50;;;;;;4909323;29;20064;-94
2022/06/15 07:42:47;;;;;;;2.97;1.50;;;30.30;43.30;;;;;;4914450;29;20028;-93
2022/06/15 07:45:15;;;;;;;6.38;1.73;;;31.10;42.40;;;;;;4903840;29;20036;-93
2022/06/15 07:50:26;;;;;;;13.43;2.08;;;30.80;43.70;;;;;;4925935;29;20587;-92
2022/06/15 07:52:53;;;;;;;3.65;1.20;;;31.00;42.80;;;;;;4901414;29;20047;-93
2022/06/15 07:55:29;;;;;;;1.42;1.20;;;31.60;44.00;;;;;;4917959;29;20046;-94
2022/06/15 07:57:54;;;;;;;4.88;1.40;;;32.60;40.80;;;;;;4905300;29;20079;-93
2022/06/15 08:00:22;;;;;;;2.00;1.48;;;33.80;42.30;;;;;;4906232;29;20043;-94
2022/06/15 08:02:49;;;;;;;1.42;1.20;;;35.10;39.30;;;;;;4906093;29;20036;-93
2022/06/15 08:05:15;;;;;;;2.45;1.30;;;34.60;38.50;;;;;;4905681;29;20096;-93
2022/06/15 08:07:44;;;;;;;4.78;1.20;;;35.00;37.70;;;;;;4918028;29;20040;-95
2022/06/15 08:10:12;;;;;;;5.27;1.37;;;35.10;38.70;;;;;;4921097;29;20025;-94
2022/06/15 08:12:39;;;;;;;2.88;1.40;;;34.20;38.00;;;;;;4903953;29;20043;-92
2022/06/15 08:15:05;;;;;;;2.22;1.30;;;33.80;37.90;;;;;;4908710;29;20365;-93
2022/06/15 08:17:36;;;;;;;13.27;1.77;;;33.20;38.20;;;;;;4922829;29;20446;-93
2022/06/15 08:20:16;;;;;;;4.25;1.40;;;33.30;39.20;;;;;;4907255;29;20025;-92
2022/06/15 08:22:47;;;;;;;9.53;1.60;;;33.70;37.80;;;;;;4917504;29;20612;-93
2022/06/15 08:25:17;;;;;;;2.88;1.42;;;34.50;39.10;;;;;;4900260;29;20027;-93
2022/06/15 08:27:43;;;;;;;1.20;1.00;;;34.50;37.40;;;;;;4923484;29;20785;-93
2022/06/15 08:30:11;;;;;;;2.22;1.38;;;34.80;37.40;;;;;;4903716;29;20029;-93
2022/06/15 08:32:38;;;;;;;3.30;1.30;;;35.50;36.70;;;;;;4895868;29;20382;-93
2022/06/15 08:35:06;;;;;;;3.28;1.45;;;35.20;36.30;;;;;;4917306;29;20051;-93
2022/06/15 08:37:32;;;;;;;2.22;1.30;;;35.40;34.20;;;;;;4920172;29;20028;-93
2022/06/15 08:39:58;;;;;;;4.10;1.33;;;36.30;34.40;;;;;;4904883;29;20028;-93
2022/06/15 08:42:39;;;;;;;2.40;1.35;;;36.50;34.90;;;;;;4904974;29;20028;-91
2022/06/15 08:45:13;;;;;;;2.30;1.33;;;37.00;32.60;;;;;;4933486;29;20059;-91
2022/06/15 08:47:55;;;;;;;2.50;1.40;;;36.70;32.70;;;;;;4886402;29;20088;-92
2022/06/15 08:50:45;;;;;;;1.40;1.30;;;37.00;34.50;;;;;;4893953;29;20041;-92
2022/06/15 08:53:25;;;;;;;3.05;1.30;;;37.30;32.80;;;;;;4913950;29;20063;-91
2022/06/15 08:56:00;;;;;;;4.40;1.30;;;37.40;30.90;;;;;;4918162;29;20470;-91
2022/06/15 08:59:01;;;;;;;2.35;1.30;;;35.70;31.80;;;;;;4915139;29;20062;-92
2022/06/15 09:01:47;;;;;;;25.90;2.72;;;35.50;35.00;;;;;;4823914;29;20027;-92
2022/06/15 09:04:13;;;;;;;1.85;1.23;;;33.90;34.00;;;;;;4895815;29;20032;-91
2022/06/15 09:06:50;;;;;;;7.97;1.40;;;33.10;32.80;;;;;;4912115;29;20032;-92
2022/06/15 09:09:33;;;;;;;3.63;1.40;;;33.20;34.50;;;;;;4914302;29;20039;-92
2022/06/15 09:15:48;;;;;;;2.20;1.10;;;35.70;34.50;;;;;;4919633;29;20038;-91
2022/06/15 09:18:35;;;;;;;2.70;1.30;;;35.80;32.50;;;;;;4910690;29;20029;-92
2022/06/15 09:21:09;;;;;;;2.78;1.30;;;34.80;34.00;;;;;;4911782;29;20536;-92
2022/06/15 09:23:41;;;;;;;2.00;1.00;;;34.90;32.50;;;;;;4927913;29;20562;-91
2022/06/15 09:26:29;;;;;;;2.58;1.20;;;33.90;33.20;;;;;;4912940;29;20183;-91
2022/06/15 09:29:13;;;;;;;1.67;1.05;;;33.40;33.20;;;;;;4899144;29;20032;-93
2022/06/15 09:31:59;;;;;;;2.28;1.00;;;34.70;33.50;;;;;;4927994;29;20020;-92
2022/06/15 09:34:37;;;;;;;1.92;1.13;;;37.30;30.70;;;;;;4896575;29;20032;-92
2022/06/15 09:37:11;;;;;;;3.42;1.00;;;38.40;30.30;;;;;;4897938;29;20151;-93
2022/06/15 09:39:37;;;;;;;1.48;0.98;;;38.00;29.60;;;;;;4925828;29;20110;-93
2022/06/15 09:42:03;;;;;;;2.08;0.80;;;38.00;29.60;;;;;;4914510;29;20041;-93
2022/06/15 09:44:40;;;;;;;2.15;1.02;;;37.80;28.40;;;;;;4906431;29;20053;-94
2022/06/15 09:47:21;;;;;;;2.13;0.82;;;39.20;28.80;;;;;;4917081;29;20029;-94
2022/06/15 09:50:05;;;;;;;1.50;0.80;;;38.40;28.50;;;;;;4889092;29;20397;-93
2022/06/15 09:52:49;;;;;;;1.65;0.90;;;39.80;28.90;;;;;;4912292;29;20032;-92
2022/06/15 09:55:36;;;;;;;1.20;0.80;;;41.10;28.20;;;;;;4902214;29;20024;-93
2022/06/15 09:58:05;;;;;;;2.33;0.90;;;40.40;26.30;;;;;;4892631;29;20043;-93
2022/06/15 10:00:31;;;;;;;1.70;0.77;;;38.20;26.80;;;;;;4915221;29;20024;-94
2022/06/15 10:03:00;;;;;;;2.03;0.90;;;38.90;28.00;;;;;;4917930;29;20421;-93
2022/06/15 10:05:33;;;;;;;1.60;0.85;;;38.90;26.40;;;;;;4899024;29;20119;-92
2022/06/15 10:08:04;;;;;;;1.20;0.75;;;38.60;26.80;;;;;;4916982;29;20035;-92
2022/06/15 10:10:55;;;;;;;1.13;0.90;;;38.90;27.40;;;;;;4924713;29;20111;-93
2022/06/15 10:13:21;;;;;;;1.92;0.90;;;39.30;27.80;;;;;;4910254;29;20111;-91
2022/06/15 10:15:55;;;;;;;2.72;0.93;;;39.50;28.20;;;;;;4905306;29;20429;-93
2022/06/15 10:18:31;;;;;;;2.65;0.90;;;38.80;27.20;;;;;;4899976;29;20031;-91
2022/06/15 10:21:09;;;;;;;2.83;0.75;;;37.70;27.30;;;;;;4897693;29;20036;-93
2022/06/15 10:23:47;;;;;;;4.13;1.00;;;37.50;29.20;;;;;;4892955;29;20040;-92
2022/06/15 10:26:32;;;;;;;3.08;0.98;;;38.20;31.30;;;;;;4920780;29;20111;-93
2022/06/15 10:29:05;;;;;;;1.10;0.98;;;39.40;28.90;;;;;;4928242;29;20056;-93
2022/06/15 10:31:33;;;;;;;3.47;1.15;;;39.30;29.00;;;;;;4896500;29;20062;-94
2022/06/15 10:34:29;;;;;;;1.20;1.02;;;38.90;28.90;;;;;;4910541;29;20024;-93
2022/06/15 10:37:00;;;;;;;1.20;1.00;;;37.50;29.10;;;;;;4896860;29;20035;-93
2022/06/15 10:39:30;;;;;;;1.40;0.93;;;36.20;30.00;;;;;;4900917;29;20072;-93
2022/06/15 10:42:16;;;;;;;2.17;1.23;;;35.40;32.50;;;;;;4883762;29;20042;-93
2022/06/15 10:44:59;;;;;;;2.63;1.10;;;35.80;33.40;;;;;;4905969;29;20038;-93
2022/06/15 10:47:25;;;;;;;3.13;1.10;;;35.60;31.10;;;;;;4908170;29;20110;-93
2022/06/15 10:49:59;;;;;;;9.48;1.30;;;34.40;31.60;;;;;;4901275;29;20493;-92
2022/06/15 10:52:49;;;;;;;1.27;0.95;;;34.50;35.60;;;;;;4904003;29;20032;-93
2022/06/15 11:04:42;;;;;;;7.32;2.38;;;34.20;34.40;;;;;;4905477;29;20031;-92
2022/06/15 11:07:15;;;;;;;1.00;0.90;;;34.40;35.30;;;;;;4868908;29;20091;-92
2022/06/15 11:10:00;;;;;;;2.88;1.10;;;34.80;36.40;;;;;;4899967;29;20032;-91
2022/06/15 11:12:37;;;;;;;2.63;1.20;;;35.10;34.00;;;;;;4898848;29;20051;-91
2022/06/15 11:15:09;;;;;;;1.92;1.25;;;34.70;31.30;;;;;;4890206;29;20028;-90
2022/06/15 11:20:47;;;;;;;2.83;1.00;;;33.70;33.30;;;;;;4910762;29;20085;-93
2022/06/15 11:23:24;;;;;;;1.27;0.90;;;33.60;34.30;;;;;;4913219;29;20032;-92
2022/06/15 11:26:01;;;;;;;3.28;1.00;;;33.80;33.40;;;;;;4918389;29;20605;-90
2022/06/15 11:28:36;;;;;;;3.17;1.20;;;33.40;33.00;;;;;;4917150;29;20048;-91
2022/06/15 11:31:07;;;;;;;1.65;1.00;;;32.30;35.40;;;;;;4904010;29;20028;-92
2022/06/15 11:33:48;;;;;;;1.40;0.95;;;32.50;36.80;;;;;;4886678;29;20031;-93
2022/06/15 11:36:25;;;;;;;1.83;1.10;;;33.10;34.70;;;;;;4908437;29;20514;-92
2022/06/15 11:39:17;;;;;;;2.85;1.20;;;34.10;34.40;;;;;;4913235;29;20037;-92
2022/06/15 11:41:47;;;;;;;2.00;1.00;;;34.80;34.00;;;;;;4920975;29;20123;-92
2022/06/15 11:44:25;;;;;;;2.78;0.80;;;34.90;32.00;;;;;;4932849;29;20107;-93
2022/06/15 11:47:15;;;;;;;2.53;1.02;;;34.30;32.70;;;;;;4915598;29;20047;-91
2022/06/15 11:49:58;;;;;;;1.27;1.00;;;33.30;33.20;;;;;;4918848;29;20765;-93
2022/06/15 11:52:33;;;;;;;3.85;1.10;;;32.60;34.90;;;;;;4893410;29;20020;-94
2022/06/15 11:55:15;;;;;;;2.10;1.05;;;31.90;35.50;;;;;;4900489;29;20023;-93
2022/06/15 11:58:07;;;;;;;3.72;1.10;;;31.30;35.10;;;;;;4906688;29;20025;-91
2022/06/15 12:00:49;;;;;;;1.75;1.20;;;31.50;36.00;;;;;;4895072;29;20461;-91
2022/06/15 12:03:32;;;;;;;1.38;1.10;;;31.50;35.50;;;;;;4892078;29;20132;-92
2022/06/15 12:06:10;;;;;;;1.77;0.75;;;31.80;37.40;;;;;;4911632;29;20040;-92
2022/06/15 12:09:06;;;;;;;3.03;0.85;;;32.60;35.80;;;;;;4920576;29;20043;-92
2022/06/15 12:14:54;;;;;;;1.90;0.82;;;33.60;34.60;;;;;;4926561;29;20066;-91
2022/06/15 12:17:29;;;;;;;1.45;1.20;;;33.00;33.60;;;;;;4919846;29;20040;-91
2022/06/15 12:20:23;;;;;;;4.75;1.00;;;33.10;34.00;;;;;;4921942;29;20028;-90
2022/06/15 12:23:02;;;;;;;2.78;1.05;;;33.00;34.10;;;;;;4893708;29;20441;-91
2022/06/15 12:25:58;;;;;;;1.23;0.80;;;32.80;34.40;;;;;;4894691;29;20060;-91
2022/06/15 12:28:23;;;;;;;1.75;1.00;;;32.20;33.90;;;;;;4910040;29;20044;-92
2022/06/15 12:31:09;;;;;;;2.08;0.80;;;32.10;35.00;;;;;;4887744;29;20054;-91
2022/06/15 12:33:54;;;;;;;0.80;0.60;;;32.30;34.00;;;;;;4900753;29;20044;-92
2022/06/15 12:36:22;;;;;;;1.00;0.70;;;32.60;32.10;;;;;;4891166;29;20370;-92
2022/06/15 12:38:55;;;;;;;0.73;0.50;;;33.00;32.00;;;;;;4916405;29;20618;-90
2022/06/15 12:44:17;;;;;;;2.47;0.50;;;32.70;33.40;;;;;;4910484;29;20091;-91
2022/06/15 12:46:44;;;;;;;0.98;0.60;;;33.10;33.20;;;;;;4922260;29;20036;-91
2022/06/15 12:49:12;;;;;;;2.50;0.70;;;33.40;32.30;;;;;;4902777;29;20028;-92
2022/06/15 12:52:15;;;;;;;1.05;0.60;;;33.90;32.30;;;;;;4913351;29;20024;-91
2022/06/15 12:55:00;;;;;;;2.10;0.80;;;34.40;30.90;;;;;;4911538;29;20044;-92
2022/06/15 12:57:25;;;;;;;2.15;0.50;;;34.90;30.60;;;;;;4912489;29;20028;-92
2022/06/15 13:00:02;;;;;;;0.80;0.60;;;35.20;30.80;;;;;;4910539;29;20465;-91
2022/06/15 13:02:59;;;;;;;1.20;0.50;;;35.20;29.10;;;;;;4917899;29;20429;-92
2022/06/15 13:05:31;;;;;;;0.75;0.60;;;35.20;29.20;;;;;;4911091;29;20034;-92
2022/06/15 13:08:22;;;;;;;1.67;0.60;;;34.80;29.00;;;;;;4904893;29;20020;-92
2022/06/15 13:10:53;;;;;;;2.75;0.60;;;34.40;30.00;;;;;;4915291;29;20032;-91
2022/06/15 13:13:45;;;;;;;1.67;0.70;;;34.40;29.70;;;;;;4923867;29;20031;-92
2022/06/15 13:16:13;;;;;;;0.80;0.55;;;34.40;30.70;;;;;;4916808;29;20043;-91
2022/06/15 13:18:52;;;;;;;1.13;0.57;;;34.30;30.50;;;;;;4911738;29;20110;-91
2022/06/15 13:21:29;;;;;;;2.38;0.60;;;34.30;31.80;;;;;;4915051;29;20401;-93
2022/06/15 13:24:06;;;;;;;1.38;0.60;;;34.30;31.20;;;;;;4907253;29;20503;-93
2022/06/15 13:26:31;;;;;;;2.95;0.60;;;34.20;31.80;;;;;;4884158;29;20438;-92
2022/06/15 13:29:03;;;;;;;0.55;0.55;;;34.20;32.40;;;;;;4915274;29;20080;-92
2022/06/15 13:31:47;;;;;;;1.08;0.60;;;34.10;29.90;;;;;;4924123;29;20028;-92
2022/06/15 13:34:34;;;;;;;1.52;0.55;;;33.90;31.90;;;;;;4914761;29;20054;-89
2022/06/15 13:37:15;;;;;;;0.90;0.55;;;33.70;31.50;;;;;;4918835;29;20115;-91
2022/06/15 13:39:46;;;;;;;0.82;0.60;;;33.50;33.10;;;;;;4892116;29;20136;-91
2022/06/15 13:42:40;;;;;;;2.13;0.65;;;33.30;31.90;;;;;;4895220;29;20382;-92
2022/06/15 13:45:24;;;;;;;1.52;0.57;;;33.10;31.40;;;;;;4898899;29;20123;-92